Terminal Aerodrome Forecast
Issued by NWS Jackson, MS

Home | Current Version | Previous Version | Text Only | Print | Product List | Glossary On
Versions: 1 2 3 4 5 6 7 8 9 10 11 12 13 14 15 16 17
000
FTUS44 KJAN 010600 AAB
TAFGLH
TAF AMD
KGLH 010625Z 0106/0206 05003KT P6SM SCT070 OVC150
      TEMPO 0106/0110 3SM BR
     FM011000 04003KT 4SM BR VCSH SCT012 OVC030
     FM011600 02007KT P6SM VCSH SCT020 OVC040
     FM020000 02004KT P6SM OVC100=

USA.gov is the U.S. government's official web portal to all federal, state and local government web resources and services.